Terminal Aerodrome Forecast
Issued by NWS

Home | Current Version | Previous Version | Text Only | Print | Product List | Glossary On
Versions: 1 2 3 4 5 6 7 8 9 10 11 12 13 14 15 16 17
000
FTUS46 KSGX 021141
TAFONT
TAF
KONT 021141Z 0212/0318 12008KT 4SM RA BKN020 OVC040
     FM021330 VRB05KT P6SM VCSH SCT025 OVC050
     FM021800 24007KT P6SM -SHRA VCTS SCT025CB BKN050
     FM022100 25010KT P6SM VCSH SCT030 BKN040
     FM030300 VRB04KT P6SM VCSH SCT030 BKN050
     FM030900 VRB04KT P6SM SCT030 SCT050=

USA.gov is the U.S. government's official web portal to all federal, state and local government web resources and services.